Time;durP1;ratioP1;P1;durP2;ratioP2;P2;SDS_P1;SDS_P2;PMS_P1;PMS_P2;Temp;Humidity;BMP_temperature;BMP_pressure;BME280_temperature;BME280_humidity;BME280_pressure;Samples;Min_cycle;Max_cycle;Signal;HPM_P1;HPM_P2
2022/10/27 00:00:56;;;;;;;11.97;10.70;;;;;;;13.01;100.00;97515.94;5074026;28;20175;-52
2022/10/27 00:03:21;;;;;;;13.03;11.40;;;;;;;12.96;100.00;97513.19;5092149;28;20675;-53
2022/10/27 00:05:47;;;;;;;14.27;10.67;;;;;;;12.88;100.00;97510.84;5092030;28;20173;-50
2022/10/27 00:08:14;;;;;;;20.37;11.90;;;;;;;12.70;100.00;97509.06;5092337;28;20657;-50
2022/10/27 00:10:41;;;;;;;13.70;11.13;;;;;;;12.66;100.00;97504.47;5092291;28;20192;-52
2022/10/27 00:13:06;;;;;;;14.73;11.90;;;;;;;12.57;100.00;97508.44;5091819;28;20685;-55
2022/10/27 00:15:32;;;;;;;12.93;11.60;;;;;;;12.56;100.00;97501.56;5092058;28;20175;-52
2022/10/27 00:17:57;;;;;;;14.70;12.83;;;;;;;12.57;100.00;97496.09;5092180;28;20287;-53
2022/10/27 00:20:23;;;;;;;14.20;12.83;;;;;;;12.52;100.00;97493.31;5091858;28;20263;-51
2022/10/27 00:22:48;;;;;;;15.17;12.27;;;;;;;12.49;100.00;97507.69;5092327;28;20275;-51
2022/10/27 00:25:13;;;;;;;18.87;14.13;;;;;;;12.53;100.00;97510.69;5092014;28;20172;-51
2022/10/27 00:27:39;;;;;;;17.37;13.37;;;;;;;12.49;100.00;97512.94;5091794;28;20224;-50
2022/10/27 00:30:05;;;;;;;14.77;13.27;;;;;;;12.49;100.00;97512.94;5092035;28;20188;-54
2022/10/27 00:32:30;;;;;;;19.57;14.40;;;;;;;12.46;100.00;97517.84;5094767;28;20188;-51
2022/10/27 00:34:56;;;;;;;20.00;14.63;;;;;;;12.45;100.00;97518.88;5095404;28;20649;-53
2022/10/27 00:37:21;;;;;;;16.97;14.97;;;;;;;12.44;100.00;97527.78;5095622;28;20291;-54
2022/10/27 00:39:47;;;;;;;18.20;16.43;;;;;;;12.43;100.00;97521.72;5094969;28;20259;-56
2022/10/27 00:42:13;;;;;;;19.60;17.60;;;;;;;12.45;100.00;97530.19;5095513;28;20504;-53
2022/10/27 00:44:41;;;;;;;20.13;18.13;;;;;;;12.35;100.00;97529.91;5095702;28;20669;-51
2022/10/27 00:47:32;;;;;;;18.00;16.30;;;;;;;12.27;100.00;97534.66;5092614;28;20319;-50
2022/10/27 00:50:30;;;;;;;16.37;14.80;;;;;;;12.21;100.00;97532.88;5095203;28;20239;-50
2022/10/27 00:52:58;;;;;;;15.70;14.10;;;;;;;12.29;100.00;97532.59;5033375;28;20189;-55
2022/10/27 00:55:29;;;;;;;17.87;16.07;;;;;;;12.36;100.00;97539.41;5095506;28;20176;-54
2022/10/27 00:57:56;;;;;;;18.53;16.83;;;;;;;12.23;100.00;97538.75;5094929;28;20207;-52
2022/10/27 01:00:22;;;;;;;16.53;14.80;;;;;;;12.21;100.00;97535.50;5094951;28;20641;-49
2022/10/27 01:02:48;;;;;;;18.30;14.63;;;;;;;12.17;100.00;97532.53;5095159;28;20233;-51
2022/10/27 01:05:18;;;;;;;19.27;17.57;;;;;;;12.13;100.00;97536.63;5095589;28;20177;-54
2022/10/27 01:07:46;;;;;;;19.93;18.20;;;;;;;12.09;100.00;97538.09;5095362;28;20200;-49
2022/10/27 01:10:13;;;;;;;19.03;17.47;;;;;;;11.99;100.00;97528.03;5094988;28;20196;-51
2022/10/27 01:12:39;;;;;;;19.57;16.87;;;;;;;12.02;100.00;97521.56;5077105;28;20608;-51
2022/10/27 01:15:06;;;;;;;17.87;16.03;;;;;;;12.07;100.00;97522.53;5095182;28;20185;-53
2022/10/27 01:18:00;;;;;;;18.13;16.20;;;;;;;11.90;100.00;97524.09;5094682;28;20559;-52
2022/10/27 01:20:45;;;;;;;18.47;16.43;;;;;;;11.86;100.00;97530.81;5094764;28;20183;-54
2022/10/27 01:23:52;;;;;;;18.27;16.53;;;;;;;11.95;100.00;97524.25;5095108;28;20179;-54
2022/10/27 01:26:47;;;;;;;17.73;15.97;;;;;;;12.03;100.00;97515.31;5095120;28;20216;-53
2022/10/27 01:29:18;;;;;;;21.47;18.63;;;;;;;12.01;100.00;97520.75;5094388;28;20226;-54
2022/10/27 01:31:54;;;;;;;21.10;19.23;;;;;;;11.86;100.00;97516.88;5094624;28;20598;-56
2022/10/27 01:34:36;;;;;;;21.90;19.90;;;;;;;11.89;100.00;97519.88;5094875;28;20192;-55
2022/10/27 01:37:12;;;;;;;21.70;17.53;;;;;;;11.85;100.00;97520.53;5094783;28;20265;-56
2022/10/27 01:39:52;;;;;;;20.43;18.63;;;;;;;11.77;100.00;97523.41;5093172;28;20318;-55
2022/10/27 01:42:27;;;;;;;24.37;20.57;;;;;;;11.92;100.00;97527.34;5094048;28;20184;-57
2022/10/27 01:44:56;;;;;;;22.53;20.30;;;;;;;11.90;100.00;97523.31;5093921;28;20229;-53
2022/10/27 01:47:23;;;;;;;22.47;20.17;;;;;;;11.96;100.00;97530.31;5084528;28;20242;-55
2022/10/27 01:49:52;;;;;;;21.47;19.13;;;;;;;11.91;100.00;97527.53;5086369;28;20200;-52
2022/10/27 01:52:40;;;;;;;23.87;18.77;;;;;;;11.83;100.00;97522.56;5093096;28;20169;-54
2022/10/27 01:55:09;;;;;;;18.73;17.10;;;;;;;11.76;100.00;97519.97;5094369;28;20513;-55
2022/10/27 01:58:05;;;;;;;16.93;14.90;;;;;;;11.84;100.00;97514.47;5094106;28;20287;-56
2022/10/27 02:00:45;;;;;;;16.53;14.30;;;;;;;11.83;100.00;97514.66;5093524;28;20276;-53
2022/10/27 02:03:16;;;;;;;15.17;13.37;;;;;;;11.71;100.00;97521.59;5094151;28;20172;-51
2022/10/27 02:05:58;;;;;;;16.03;13.97;;;;;;;11.77;100.00;97518.16;5094004;28;20208;-51
2022/10/27 02:08:44;;;;;;;15.53;13.23;;;;;;;11.59;100.00;97509.19;5093992;28;20212;-54
2022/10/27 02:11:11;;;;;;;29.37;14.47;;;;;;;11.62;100.00;97510.59;5089595;28;20239;-57
2022/10/27 02:13:40;;;;;;;17.43;13.33;;;;;;;11.61;100.00;97503.72;5094096;28;20607;-55
2022/10/27 02:16:15;;;;;;;20.13;15.73;;;;;;;11.55;100.00;97502.75;5094059;28;20216;-54
2022/10/27 02:18:50;;;;;;;15.27;13.67;;;;;;;11.57;100.00;97511.25;5093809;28;20734;-51
2022/10/27 02:21:17;;;;;;;17.17;15.40;;;;;;;11.53;100.00;97510.06;5094010;28;20581;-52
2022/10/27 02:23:42;;;;;;;17.47;15.43;;;;;;;11.47;100.00;97510.13;5093800;28;20172;-52
2022/10/27 02:26:23;;;;;;;17.70;15.83;;;;;;;11.44;100.00;97510.53;5092671;28;20539;-52
2022/10/27 02:29:22;;;;;;;19.97;17.97;;;;;;;11.52;100.00;97516.31;5090256;28;20246;-56
2022/10/27 02:31:52;;;;;;;24.00;21.13;;;;;;;11.57;100.00;97521.75;5092674;28;20570;-53
2022/10/27 02:34:19;;;;;;;24.13;19.90;;;;;;;11.50;100.00;97526.22;5093321;28;20644;-56
2022/10/27 02:36:44;;;;;;;25.07;22.57;;;;;;;11.48;100.00;97524.84;5093541;28;20208;-55
2022/10/27 02:39:10;;;;;;;32.80;22.27;;;;;;;11.36;100.00;97527.34;5092592;28;20208;-52
2022/10/27 02:41:35;;;;;;;21.83;19.73;;;;;;;11.28;100.00;97527.59;5092864;28;20180;-55
2022/10/27 02:44:01;;;;;;;22.90;19.47;;;;;;;11.19;100.00;97523.63;5093221;28;20215;-56
2022/10/27 02:46:26;;;;;;;20.13;18.07;;;;;;;11.26;100.00;97522.56;5090623;28;20240;-55
2022/10/27 02:48:52;;;;;;;20.07;17.77;;;;;;;11.20;100.00;97522.63;5092326;28;20181;-54
2022/10/27 02:51:17;;;;;;;18.50;16.80;;;;;;;11.22;100.00;97518.75;5074866;28;20716;-56
2022/10/27 02:53:42;;;;;;;20.53;16.70;;;;;;;11.26;100.00;97517.31;5092281;28;20540;-53
2022/10/27 02:56:08;;;;;;;17.90;16.03;;;;;;;11.18;100.00;97511.53;5093137;28;20203;-56
2022/10/27 02:58:34;;;;;;;17.30;15.07;;;;;;;11.14;100.00;97507.72;5093139;28;20204;-56
2022/10/27 03:01:00;;;;;;;17.47;15.50;;;;;;;11.26;100.00;97519.13;5093263;28;20173;-53
2022/10/27 03:03:25;;;;;;;17.40;15.50;;;;;;;11.18;100.00;97514.97;5092917;28;20180;-55
2022/10/27 03:05:51;;;;;;;21.73;17.00;;;;;;;11.07;100.00;97510.38;5093071;28;20172;-55
2022/10/27 03:08:16;;;;;;;20.77;15.87;;;;;;;11.16;100.00;97516.19;5092861;28;20204;-55
2022/10/27 03:10:43;;;;;;;19.20;16.30;;;;;;;11.06;100.00;97518.47;5092896;28;20200;-55
2022/10/27 03:13:09;;;;;;;22.10;16.93;;;;;;;11.13;100.00;97514.00;5093272;28;20218;-54
2022/10/27 03:15:35;;;;;;;21.10;17.83;;;;;;;11.10;100.00;97512.56;5092985;28;20180;-50
2022/10/27 03:18:01;;;;;;;20.17;17.47;;;;;;;11.19;100.00;97513.94;5092869;28;20672;-53
2022/10/27 03:20:26;;;;;;;26.87;17.77;;;;;;;11.17;100.00;97509.91;5092584;28;20176;-50
2022/10/27 03:22:52;;;;;;;23.47;18.00;;;;;;;11.16;100.00;97509.09;5092893;28;20164;-52
2022/10/27 03:25:17;;;;;;;21.27;19.20;;;;;;;11.13;100.00;97516.59;5092731;28;20180;-52
2022/10/27 03:27:44;;;;;;;25.13;19.03;;;;;;;11.05;100.00;97516.84;5092445;28;20203;-53
2022/10/27 03:30:12;;;;;;;22.97;18.87;;;;;;;11.11;100.00;97513.38;5092375;28;20188;-53
2022/10/27 03:32:38;;;;;;;21.80;19.63;;;;;;;11.06;100.00;97506.16;5093016;28;20178;-50
2022/10/27 03:35:04;;;;;;;25.17;19.10;;;;;;;11.00;100.00;97508.81;5092407;28;20179;-57
2022/10/27 03:37:29;;;;;;;19.90;17.80;;;;;;;11.06;100.00;97511.41;5092355;28;20204;-55
2022/10/27 03:39:55;;;;;;;21.33;19.07;;;;;;;11.13;100.00;97514.00;5092042;28;20180;-52
2022/10/27 03:42:20;;;;;;;22.10;19.73;;;;;;;11.17;100.00;97512.53;5092506;28;20492;-53
2022/10/27 03:44:46;;;;;;;22.47;20.40;;;;;;;11.14;100.00;97505.09;5092404;28;20279;-55
2022/10/27 03:47:11;;;;;;;23.27;19.13;;;;;;;11.09;100.00;97512.81;5089419;28;20262;-53
2022/10/27 03:49:37;;;;;;;24.97;20.63;;;;;;;11.14;100.00;97507.72;5092207;28;20249;-54
2022/10/27 03:52:02;;;;;;;21.30;18.90;;;;;;;11.13;100.00;97514.00;5092487;28;20180;-52
2022/10/27 03:54:31;;;;;;;24.07;20.63;;;;;;;11.16;100.00;97509.09;5092466;28;20192;-53
2022/10/27 03:56:57;;;;;;;25.00;21.67;;;;;;;11.23;100.00;97503.81;5092239;28;20201;-54
2022/10/27 03:59:23;;;;;;;26.37;19.90;;;;;;;11.32;100.00;97507.78;5092623;28;20179;-51
2022/10/27 04:01:48;;;;;;;22.83;19.47;;;;;;;11.29;100.00;97502.97;5092367;28;20169;-54
2022/10/27 04:04:14;;;;;;;22.60;19.10;;;;;;;11.25;100.00;97505.22;5092153;28;20251;-56
2022/10/27 04:06:39;;;;;;;26.13;21.60;;;;;;;11.21;100.00;97505.84;5095795;28;20176;-53
2022/10/27 04:09:05;;;;;;;28.47;21.40;;;;;;;11.14;100.00;97503.28;5078223;28;20242;-55
2022/10/27 04:11:30;;;;;;;22.23;19.47;;;;;;;11.04;100.00;97502.13;5095961;28;20192;-55
2022/10/27 04:13:56;;;;;;;26.27;18.53;;;;;;;10.96;100.00;97505.00;5096556;28;20287;-55
2022/10/27 04:16:21;;;;;;;22.37;18.27;;;;;;;10.84;100.00;97505.69;5096421;28;20188;-54
2022/10/27 04:18:47;;;;;;;23.63;19.37;;;;;;;10.91;100.00;97508.28;5096107;28;20207;-55
2022/10/27 04:21:13;;;;;;;23.57;21.30;;;;;;;10.86;100.00;97518.59;5078110;28;20229;-57
2022/10/27 04:23:39;;;;;;;23.23;18.03;;;;;;;10.91;100.00;97510.09;5096173;28;20222;-56
2022/10/27 04:26:04;;;;;;;24.83;20.03;;;;;;;10.83;100.00;97509.31;5078045;28;20172;-56
2022/10/27 04:28:30;;;;;;;21.67;19.33;;;;;;;10.90;100.00;97511.91;5096391;28;20204;-57
2022/10/27 04:30:55;;;;;;;22.90;20.63;;;;;;;10.92;100.00;97509.06;5096296;28;20706;-56
2022/10/27 04:33:21;;;;;;;26.00;21.23;;;;;;;10.81;100.00;97511.31;5095808;28;20195;-55
2022/10/27 04:35:46;;;;;;;21.97;19.83;;;;;;;10.78;100.00;97514.38;5095589;28;20176;-57
2022/10/27 04:38:11;;;;;;;21.53;18.73;;;;;;;10.79;100.00;97520.44;5095131;28;20208;-56
2022/10/27 04:40:37;;;;;;;23.07;19.20;;;;;;;10.48;100.00;97517.75;5095652;28;20177;-54
2022/10/27 04:43:02;;;;;;;20.30;18.17;;;;;;;10.56;100.00;97515.69;5095703;28;20188;-55
2022/10/27 04:45:28;;;;;;;20.67;16.90;;;;;;;10.52;100.00;97517.13;5095303;28;20184;-56
2022/10/27 04:47:53;;;;;;;19.37;17.47;;;;;;;10.58;100.00;97521.53;5092454;28;20228;-57
2022/10/27 04:50:19;;;;;;;19.10;17.27;;;;;;;10.54;100.00;97527.38;5095575;28;20246;-56
2022/10/27 04:52:55;;;;;;;20.77;18.77;;;;;;;10.52;100.00;97534.66;5095770;28;20214;-54
2022/10/27 04:55:20;;;;;;;23.83;18.67;;;;;;;10.53;100.00;97534.47;5095634;28;20179;-53
2022/10/27 04:57:46;;;;;;;20.97;18.87;;;;;;;10.47;100.00;97535.31;5095079;28;20583;-52
2022/10/27 05:00:11;;;;;;;22.67;20.63;;;;;;;10.39;100.00;97536.31;5095220;28;20176;-55
2022/10/27 05:02:37;;;;;;;25.43;22.97;;;;;;;10.39;100.00;97525.03;5095067;28;20184;-55
2022/10/27 05:05:02;;;;;;;25.20;22.90;;;;;;;10.38;100.00;97526.03;5094385;28;20176;-55
2022/10/27 05:07:28;;;;;;;24.30;22.17;;;;;;;10.40;100.00;97524.03;5078210;28;20204;-53
2022/10/27 05:09:53;;;;;;;25.00;22.63;;;;;;;10.42;100.00;97527.25;5094479;28;20251;-55
2022/10/27 05:12:18;;;;;;;25.07;22.77;;;;;;;10.39;100.00;97525.84;5094918;28;20172;-57
2022/10/27 05:14:44;;;;;;;28.37;25.80;;;;;;;10.52;100.00;97525.00;5094844;28;20172;-57
2022/10/27 05:17:09;;;;;;;26.90;24.40;;;;;;;10.48;100.00;97523.78;5093495;28;20204;-56
2022/10/27 05:19:35;;;;;;;26.90;24.37;;;;;;;10.50;100.00;97520.97;5094719;28;20184;-53
2022/10/27 05:22:00;;;;;;;26.43;23.63;;;;;;;10.46;100.00;97519.78;5093733;28;20172;-54
2022/10/27 05:24:25;;;;;;;23.50;20.73;;;;;;;10.31;100.00;97520.81;5094508;28;20173;-54
2022/10/27 05:26:51;;;;;;;23.47;19.83;;;;;;;10.40;100.00;97524.84;5094413;28;20197;-56
2022/10/27 05:29:16;;;;;;;23.97;21.60;;;;;;;10.45;100.00;97529.44;5094129;28;20299;-57
2022/10/27 05:31:42;;;;;;;27.67;24.67;;;;;;;10.39;100.00;97527.66;5081069;28;20203;-51
2022/10/27 05:34:07;;;;;;;23.97;21.03;;;;;;;10.34;100.00;97533.53;5076093;28;20559;-52
2022/10/27 05:36:32;;;;;;;33.93;21.67;;;;;;;10.33;100.00;97542.38;5094367;28;20710;-55
2022/10/27 05:38:58;;;;;;;40.90;19.93;;;;;;;10.31;100.00;97533.91;5093730;28;20192;-56
2022/10/27 05:41:23;;;;;;;41.97;18.80;;;;;;;10.29;100.00;97522.03;5094290;28;20181;-58
2022/10/27 05:43:48;;;;;;;22.27;18.23;;;;;;;10.28;100.00;97523.06;5093989;28;20203;-51
2022/10/27 05:46:14;;;;;;;28.60;17.93;;;;;;;10.23;100.00;97515.81;5091499;28;20611;-55
2022/10/27 05:48:39;;;;;;;22.23;17.00;;;;;;;10.26;100.00;97512.78;5094202;28;20339;-54
2022/10/27 05:51:05;;;;;;;23.63;18.37;;;;;;;10.20;100.00;97504.91;5094208;28;20188;-56
2022/10/27 05:53:30;;;;;;;19.83;17.53;;;;;;;10.21;100.00;97506.53;5094134;28;20192;-55
2022/10/27 05:55:56;;;;;;;19.47;17.37;;;;;;;10.31;100.00;97510.34;5094104;28;20622;-57
2022/10/27 05:58:21;;;;;;;21.13;17.93;;;;;;;10.27;100.00;97505.72;5075966;28;20214;-55
2022/10/27 06:00:47;;;;;;;20.40;16.83;;;;;;;10.28;100.00;97507.34;5094491;28;20232;-54
2022/10/27 06:03:20;;;;;;;21.80;18.43;;;;;;;10.22;100.00;97510.78;5093701;28;20173;-50
2022/10/27 06:05:46;;;;;;;25.30;17.60;;;;;;;10.16;100.00;97503.72;5093860;28;20257;-51
2022/10/27 06:08:12;;;;;;;20.33;17.03;;;;;;;10.23;100.00;97500.09;5093741;28;20291;-50
2022/10/27 06:10:37;;;;;;;25.00;17.80;;;;;;;10.32;100.00;97504.09;5094033;28;20196;-55
2022/10/27 06:13:05;;;;;;;21.33;18.97;;;;;;;10.30;100.00;97497.47;5093729;28;20230;-54
2022/10/27 06:15:32;;;;;;;21.60;16.27;;;;;;;10.35;100.00;97506.31;5093065;28;20268;-55
2022/10/27 06:17:57;;;;;;;21.40;19.17;;;;;;;10.29;100.00;97501.91;5093585;28;20212;-53
2022/10/27 06:20:23;;;;;;;21.83;18.77;;;;;;;10.30;100.00;97505.31;5094195;28;20215;-55
2022/10/27 06:22:49;;;;;;;22.90;15.43;;;;;;;10.27;100.00;97505.72;5093693;28;20528;-56
2022/10/27 06:25:14;;;;;;;17.17;15.37;;;;;;;10.27;100.00;97513.56;5093679;28;20248;-55
2022/10/27 06:27:39;;;;;;;17.80;16.00;;;;;;;10.33;100.00;97518.00;5077230;28;20562;-57
2022/10/27 06:30:06;;;;;;;20.30;15.53;;;;;;;10.37;100.00;97520.00;5092309;28;20204;-57
2022/10/27 06:32:36;;;;;;;19.07;15.10;;;;;;;10.37;100.00;97516.56;5089562;28;20513;-55
2022/10/27 06:35:01;;;;;;;24.10;17.23;;;;;;;10.56;100.00;97510.44;5093001;28;20541;-55
2022/10/27 06:37:27;;;;;;;19.47;16.30;;;;;;;10.78;100.00;97519.63;5092135;28;20295;-56
2022/10/27 06:39:54;;;;;;;22.00;17.97;;;;;;;10.79;100.00;97521.25;5093044;28;20180;-55
2022/10/27 06:42:21;;;;;;;17.60;15.70;;;;;;;10.83;100.00;97521.63;5091827;28;20192;-56
2022/10/27 06:44:46;;;;;;;18.37;16.43;;;;;;;10.97;100.00;97538.91;5092691;28;20279;-57
2022/10/27 06:47:12;;;;;;;19.20;16.17;;;;;;;11.07;100.00;97534.00;5089925;28;20307;-55
2022/10/27 06:49:37;;;;;;;19.93;15.93;;;;;;;10.96;100.00;97539.09;5092569;28;20272;-50
2022/10/27 06:52:03;;;;;;;22.03;15.47;;;;;;;11.13;100.00;97542.84;5092854;28;20193;-52
2022/10/27 06:54:28;;;;;;;22.23;16.27;;;;;;;11.36;100.00;97547.56;5092662;28;20169;-52
2022/10/27 06:56:54;;;;;;;23.53;17.33;;;;;;;11.39;100.00;97544.47;5092846;28;20197;-53
2022/10/27 06:59:19;;;;;;;22.37;16.60;;;;;;;11.56;100.00;97545.56;5093066;28;20176;-53
2022/10/27 07:01:44;;;;;;;18.13;15.37;;;;;;;11.76;100.00;97548.09;5092802;28;20176;-55
2022/10/27 07:04:10;;;;;;;17.23;14.87;;;;;;;12.00;100.00;97555.13;5092164;28;20169;-57
2022/10/27 07:06:35;;;;;;;15.67;13.67;;;;;;;12.12;100.00;97549.97;5092793;28;20217;-53
2022/10/27 07:09:01;;;;;;;17.10;12.70;;;;;;;12.30;100.00;97544.75;5092694;28;20569;-53
2022/10/27 07:11:27;;;;;;;18.00;14.30;;;;;;;12.35;100.00;97547.50;5092802;28;20279;-54
2022/10/27 07:13:53;;;;;;;17.70;13.70;;;;;;;12.48;100.00;97548.16;5092838;28;20179;-53
2022/10/27 07:16:18;;;;;;;19.80;17.87;;;;;;;12.51;100.00;97552.19;5092510;28;20593;-54
2022/10/27 07:18:44;;;;;;;18.43;16.70;;;;;;;12.70;100.00;97545.91;5092348;28;20200;-55
2022/10/27 07:21:09;;;;;;;14.03;12.33;;;;;;;12.85;100.00;97543.69;5092705;28;20303;-55
2022/10/27 07:23:35;;;;;;;15.53;10.27;;;;;;;12.90;100.00;97545.63;5092492;28;20629;-51
2022/10/27 07:26:00;;;;;;;15.77;13.80;;;;;;;13.05;100.00;97543.41;5092318;28;20200;-54
2022/10/27 07:28:25;;;;;;;16.37;14.87;;;;;;;13.29;100.00;97552.22;5092531;28;20456;-55
2022/10/27 07:30:54;;;;;;;17.00;15.43;;;;;;;13.35;100.00;97550.53;5092319;28;20192;-55
2022/10/27 07:33:20;;;;;;;16.50;15.07;;;;;;;13.45;100.00;97562.13;5092131;28;20649;-55
2022/10/27 07:35:49;;;;;;;15.90;14.17;;;;;;;13.61;100.00;97556.19;5092545;28;20188;-53
2022/10/27 07:38:15;;;;;;;19.13;17.47;;;;;;;13.65;100.00;97551.28;5083374;28;20257;-57
2022/10/27 07:40:40;;;;;;;21.63;19.93;;;;;;;13.81;100.00;97552.44;5091905;28;20565;-57
2022/10/27 07:43:06;;;;;;;19.83;18.27;;;;;;;13.96;100.00;97558.06;5092252;28;20188;-57
2022/10/27 07:45:32;;;;;;;15.73;14.27;;;;;;;13.97;100.00;97559.69;5091715;28;20180;-54
2022/10/27 07:47:58;;;;;;;17.20;12.73;;;;;;;14.06;100.00;97561.72;5089134;28;20232;-53
2022/10/27 07:50:28;;;;;;;15.73;11.23;;;;;;;14.22;100.00;97564.69;5092656;28;20203;-50
2022/10/27 07:52:53;;;;;;;13.87;12.37;;;;;;;14.32;100.00;97564.94;5092370;28;20511;-50
2022/10/27 07:55:21;;;;;;;15.63;11.60;;;;;;;14.47;100.00;97558.19;5092128;28;20198;-52
2022/10/27 07:57:46;;;;;;;12.30;11.00;;;;;;;14.45;100.00;97557.59;5092192;28;20200;-57
2022/10/27 08:00:16;;;;;;;15.27;13.50;;;;;;;14.56;100.00;97564.69;5092090;28;20167;-57
2022/10/27 08:02:43;;;;;;;19.13;17.70;;;;;;;14.59;100.00;97563.44;5091912;28;20256;-56
2022/10/27 08:05:09;;;;;;;14.33;12.97;;;;;;;14.55;100.00;97560.44;5091926;28;20181;-57
2022/10/27 08:07:35;;;;;;;18.13;16.93;;;;;;;15.10;100.00;97564.44;5092035;28;20522;-55
2022/10/27 08:10:01;;;;;;;31.87;29.83;;;;;;;15.67;100.00;97571.28;5091756;28;20173;-56
2022/10/27 08:12:27;;;;;;;16.83;15.30;;;;;;;15.84;100.00;97567.84;5090781;28;20177;-58
2022/10/27 08:14:52;;;;;;;12.73;9.87;;;;;;;15.86;100.00;97574.50;5089642;28;20169;-59
2022/10/27 08:17:18;;;;;;;31.80;9.77;;;;;;;16.03;100.00;97574.50;5072742;28;20556;-59
2022/10/27 08:19:43;;;;;;;10.70;9.33;;;;;;;16.07;100.00;97584.34;5091801;28;20206;-59
2022/10/27 08:22:09;;;;;;;17.37;15.57;;;;;;;15.91;100.00;97589.66;5091059;28;20196;-55
2022/10/27 08:24:34;;;;;;;23.43;21.83;;;;;;;15.54;100.00;97584.81;5087374;28;20250;-56
2022/10/27 08:27:00;;;;;;;18.67;17.27;;;;;;;15.22;100.00;97587.09;5091014;28;20207;-57
2022/10/27 08:29:25;;;;;;;16.90;15.30;;;;;;;15.23;100.00;97593.19;5091881;28;20181;-53
2022/10/27 08:31:52;;;;;;;13.23;11.40;;;;;;;15.28;100.00;97591.44;5091563;28;20207;-51
2022/10/27 08:34:17;;;;;;;13.20;12.03;;;;;;;15.19;100.00;97592.06;5091902;28;20653;-53
2022/10/27 08:36:42;;;;;;;12.03;10.83;;;;;;;15.22;100.00;97596.88;5091173;28;20253;-52
2022/10/27 08:39:09;;;;;;;12.33;11.23;;;;;;;15.21;100.00;97593.41;5091811;28;20230;-52
2022/10/27 08:41:42;;;;;;;15.70;11.97;;;;;;;15.26;100.00;97587.44;5091906;28;20210;-52
2022/10/27 08:44:16;;;;;;;14.37;13.23;;;;;;;15.29;100.00;97582.50;5079084;28;20230;-56
2022/10/27 08:46:49;;;;;;;12.83;11.27;;;;;;;15.40;100.00;97599.31;5078216;28;20235;-56
2022/10/27 08:49:39;;;;;;;13.63;12.47;;;;;;;15.52;100.00;97588.72;5091474;28;20169;-50
2022/10/27 08:52:14;;;;;;;17.97;14.73;;;;;;;15.53;100.00;97585.84;5092571;28;20242;-55
2022/10/27 08:54:44;;;;;;;21.73;19.60;;;;;;;15.52;100.00;97584.25;5095373;28;20179;-53
2022/10/27 08:57:15;;;;;;;17.00;15.50;;;;;;;15.67;100.00;97588.97;5079591;28;20712;-52
2022/10/27 08:59:41;;;;;;;18.37;16.77;;;;;;;15.67;100.00;97587.16;5075013;28;20197;-58
2022/10/27 09:02:27;;;;;;;14.20;12.80;;;;;;;15.79;100.00;97592.38;5075572;28;20193;-55
2022/10/27 09:05:23;;;;;;;12.55;10.80;;;;;;;15.95;100.00;97590.75;5094633;28;20487;-54
2022/10/27 09:07:55;;;;;;;14.10;10.20;;;;;;;15.90;100.00;97591.50;5093963;28;20297;-57
2022/10/27 09:10:41;;;;;;;14.93;13.63;;;;;;;16.00;100.00;97596.13;5094888;28;20198;-52
2022/10/27 09:13:34;;;;;;;23.90;10.87;;;;;;;16.10;100.00;97589.19;5094116;28;20690;-54
2022/10/27 09:16:05;;;;;;;15.60;14.03;;;;;;;16.19;100.00;97590.34;5095019;28;20192;-57
2022/10/27 09:18:42;;;;;;;16.10;14.48;;;;;;;16.18;100.00;97590.59;5093184;28;20720;-55
2022/10/27 09:21:14;;;;;;;16.63;15.10;;;;;;;16.30;100.00;97583.38;5094797;28;20180;-67
2022/10/27 09:23:51;;;;;;;13.63;11.23;;;;;;;16.46;100.00;97589.66;5094414;28;20172;-57
2022/10/27 09:26:20;;;;;;;11.88;10.30;;;;;;;16.41;100.00;97584.31;5094586;28;20188;-66
2022/10/27 09:28:50;;;;;;;14.45;9.85;;;;;;;16.40;100.00;97593.28;5093319;28;20203;-58
2022/10/27 09:31:20;;;;;;;14.38;7.78;;;;;;;16.43;100.00;97590.97;5094580;28;20257;-56
2022/10/27 09:33:58;;;;;;;24.73;22.52;;;;;;;16.58;100.00;97591.16;5076236;28;20184;-53
2022/10/27 09:36:24;;;;;;;11.83;8.60;;;;;;;16.66;100.00;97589.19;5075370;28;20625;-57
2022/10/27 09:38:49;;;;;;;28.92;26.75;;;;;;;16.82;100.00;97586.47;5094035;28;20207;-58
2022/10/27 09:41:15;;;;;;;17.42;15.73;;;;;;;16.94;100.00;97591.66;5094234;28;20210;-58
2022/10/27 09:43:40;;;;;;;52.80;49.08;;;;;;;16.98;100.00;97584.81;5093578;28;20185;-57
2022/10/27 09:46:22;;;;;;;30.50;28.42;;;;;;;17.07;98.35;97590.47;5092161;28;20573;-56
2022/10/27 09:48:51;;;;;;;22.30;20.83;;;;;;;17.03;97.85;97587.50;5086218;28;20208;-58
2022/10/27 09:51:37;;;;;;;15.88;11.57;;;;;;;17.10;98.97;97584.69;5093217;28;20208;-57
2022/10/27 09:54:04;;;;;;;10.55;9.63;;;;;;;17.17;99.52;97590.56;5094039;28;20539;-58
2022/10/27 09:56:32;;;;;;;10.00;9.23;;;;;;;17.31;99.73;97583.84;5094102;28;20180;-58
2022/10/27 09:59:01;;;;;;;24.77;22.92;;;;;;;17.35;97.83;97576.97;5093585;28;20164;-58
2022/10/27 10:01:47;;;;;;;23.42;21.13;;;;;;;17.33;95.77;97566.63;5093549;28;20909;-58
2022/10/27 10:04:26;;;;;;;15.05;13.88;;;;;;;17.44;97.19;97576.28;5093166;28;20173;-58
2022/10/27 10:07:18;;;;;;;37.75;35.15;;;;;;;17.43;98.70;97580.00;5091594;28;20214;-58
2022/10/27 10:09:45;;;;;;;25.85;23.80;;;;;;;17.39;99.67;97578.06;5082739;28;20200;-58
2022/10/27 10:12:21;;;;;;;23.70;22.10;;;;;;;17.42;100.00;97577.59;5094118;28;20203;-56
2022/10/27 10:14:47;;;;;;;11.20;8.50;;;;;;;17.53;100.00;97575.84;5075108;28;20180;-58
2022/10/27 10:17:49;;;;;;;10.35;7.63;;;;;;;17.64;100.00;97578.34;5092845;28;20204;-57
2022/10/27 10:20:33;;;;;;;11.25;7.72;;;;;;;17.65;100.00;97582.63;5076366;28;20671;-55
2022/10/27 10:23:01;;;;;;;9.38;8.50;;;;;;;17.61;100.00;97583.38;5093400;28;20581;-57
2022/10/27 10:25:32;;;;;;;22.08;20.33;;;;;;;17.78;100.00;97590.13;5092642;28;20189;-58
2022/10/27 10:28:03;;;;;;;19.38;17.73;;;;;;;17.86;97.02;97573.78;5092983;28;20269;-58
2022/10/27 10:30:39;;;;;;;43.35;39.90;;;;;;;17.95;94.55;97571.44;5093371;28;20661;-58
2022/10/27 10:33:06;;;;;;;49.60;46.47;;;;;;;17.90;92.95;97560.78;5092683;28;20561;-58
2022/10/27 10:36:15;;;;;;;28.17;25.85;;;;;;;18.07;94.35;97564.09;5093214;28;20172;-58
2022/10/27 10:38:48;;;;;;;44.60;41.80;;;;;;;18.16;93.31;97570.56;5033426;28;20208;-58
2022/10/27 10:41:15;;;;;;;40.55;37.80;;;;;;;18.22;92.03;97568.72;5092665;28;20240;-58
2022/10/27 10:43:42;;;;;;;34.35;32.05;;;;;;;18.22;90.90;97566.06;5092496;28;20237;-62
2022/10/27 10:46:23;;;;;;;38.10;35.67;;;;;;;18.25;91.89;97563.69;5090381;28;20228;-57
2022/10/27 10:48:52;;;;;;;19.40;17.88;;;;;;;18.33;92.06;97566.94;5092593;28;20208;-59
2022/10/27 10:51:30;;;;;;;35.30;32.83;;;;;;;18.31;89.98;97571.69;5092905;28;20199;-59
2022/10/27 10:53:57;;;;;;;13.52;12.07;;;;;;;18.38;89.49;97565.13;5092952;28;20549;-59
2022/10/27 10:56:32;;;;;;;16.25;14.85;;;;;;;18.43;86.57;97564.34;5093334;28;20169;-57
2022/10/27 10:59:15;;;;;;;19.35;17.80;;;;;;;18.44;84.04;97564.09;5092089;28;20164;-56
2022/10/27 11:01:46;;;;;;;18.98;17.75;;;;;;;18.40;85.08;97565.63;5092278;28;20164;-60
2022/10/27 11:04:14;;;;;;;16.83;15.63;;;;;;;18.58;86.59;97561.78;5092239;28;20348;-55
2022/10/27 11:07:14;;;;;;;28.55;26.65;;;;;;;18.60;85.75;97557.03;5074170;28;20210;-57
2022/10/27 11:10:18;;;;;;;30.80;28.85;;;;;;;18.68;83.51;97561.81;5066827;28;20279;-58
2022/10/27 11:12:53;;;;;;;39.25;36.97;;;;;;;18.62;83.93;97555.69;5092640;28;20211;-61
2022/10/27 11:15:21;;;;;;;38.83;36.33;;;;;;;18.83;83.42;97550.47;5091382;28;20165;-55
2022/10/27 11:17:49;;;;;;;175.20;164.95;;;;;;;18.82;81.77;97546.22;5092212;28;20249;-55
2022/10/27 11:20:43;;;;;;;138.80;130.88;;;;;;;18.92;80.45;97543.59;5092401;28;20165;-53